sensor_id;sensor_type;location;lat;lon;timestamp;P1;durP1;ratioP1;P2;durP2;ratioP2
73571;SDS011;61854;48.510;-2.770;2022-10-16T00:03:47;12.88;;;1.90;;
73571;SDS011;61854;48.510;-2.770;2022-10-16T00:06:13;13.63;;;2.10;;
73571;SDS011;61854;48.510;-2.770;2022-10-16T00:08:40;11.32;;;1.90;;
73571;SDS011;61854;48.510;-2.770;2022-10-16T00:11:16;11.50;;;1.73;;
73571;SDS011;61854;48.510;-2.770;2022-10-16T00:13:50;10.68;;;1.88;;
73571;SDS011;61854;48.510;-2.770;2022-10-16T00:16:19;15.43;;;2.20;;
73571;SDS011;61854;48.510;-2.770;2022-10-16T00:18:45;15.55;;;1.85;;
73571;SDS011;61854;48.510;-2.770;2022-10-16T00:21:13;11.57;;;1.65;;
73571;SDS011;61854;48.510;-2.770;2022-10-16T00:23:40;13.00;;;2.13;;
73571;SDS011;61854;48.510;-2.770;2022-10-16T00:26:07;15.00;;;2.05;;
73571;SDS011;61854;48.510;-2.770;2022-10-16T00:28:40;11.75;;;2.33;;
73571;SDS011;61854;48.510;-2.770;2022-10-16T00:31:07;11.70;;;1.98;;
73571;SDS011;61854;48.510;-2.770;2022-10-16T00:33:35;15.52;;;2.13;;
73571;SDS011;61854;48.510;-2.770;2022-10-16T00:36:02;14.27;;;2.13;;
73571;SDS011;61854;48.510;-2.770;2022-10-16T00:38:29;14.50;;;1.92;;
73571;SDS011;61854;48.510;-2.770;2022-10-16T00:40:55;21.77;;;2.28;;
73571;SDS011;61854;48.510;-2.770;2022-10-16T00:46:54;15.02;;;2.15;;
73571;SDS011;61854;48.510;-2.770;2022-10-16T00:49:02;7.97;;;1.85;;
73571;SDS011;61854;48.510;-2.770;2022-10-16T00:51:54;16.00;;;1.60;;
73571;SDS011;61854;48.510;-2.770;2022-10-16T00:54:21;8.00;;;1.55;;
73571;SDS011;61854;48.510;-2.770;2022-10-16T00:56:50;11.20;;;1.92;;
73571;SDS011;61854;48.510;-2.770;2022-10-16T00:59:20;9.05;;;1.85;;
73571;SDS011;61854;48.510;-2.770;2022-10-16T01:01:52;18.25;;;2.42;;
73571;SDS011;61854;48.510;-2.770;2022-10-16T01:04:19;12.70;;;1.90;;
73571;SDS011;61854;48.510;-2.770;2022-10-16T01:06:56;11.98;;;1.83;;
73571;SDS011;61854;48.510;-2.770;2022-10-16T01:09:37;16.92;;;2.33;;
73571;SDS011;61854;48.510;-2.770;2022-10-16T01:12:14;10.07;;;1.58;;
73571;SDS011;61854;48.510;-2.770;2022-10-16T01:15:14;11.63;;;1.48;;
73571;SDS011;61854;48.510;-2.770;2022-10-16T01:23:48;8.73;;;1.90;;
73571;SDS011;61854;48.510;-2.770;2022-10-16T01:29:38;11.88;;;1.60;;
73571;SDS011;61854;48.510;-2.770;2022-10-16T01:32:13;15.10;;;1.67;;
73571;SDS011;61854;48.510;-2.770;2022-10-16T01:34:42;9.60;;;1.95;;
73571;SDS011;61854;48.510;-2.770;2022-10-16T01:37:21;13.50;;;1.88;;
73571;SDS011;61854;48.510;-2.770;2022-10-16T01:39:53;15.55;;;2.10;;
73571;SDS011;61854;48.510;-2.770;2022-10-16T01:42:24;16.35;;;2.28;;
73571;SDS011;61854;48.510;-2.770;2022-10-16T01:44:55;15.55;;;2.03;;
73571;SDS011;61854;48.510;-2.770;2022-10-16T01:47:23;15.00;;;1.95;;
73571;SDS011;61854;48.510;-2.770;2022-10-16T01:49:51;11.75;;;1.60;;
73571;SDS011;61854;48.510;-2.770;2022-10-16T01:52:20;9.45;;;1.40;;
73571;SDS011;61854;48.510;-2.770;2022-10-16T01:54:50;12.60;;;2.13;;
73571;SDS011;61854;48.510;-2.770;2022-10-16T01:57:19;11.02;;;1.75;;
73571;SDS011;61854;48.510;-2.770;2022-10-16T01:59:49;8.73;;;1.55;;
73571;SDS011;61854;48.510;-2.770;2022-10-16T02:02:19;9.52;;;1.20;;
73571;SDS011;61854;48.510;-2.770;2022-10-16T02:04:48;9.27;;;1.55;;
73571;SDS011;61854;48.510;-2.770;2022-10-16T02:07:18;13.20;;;1.75;;
73571;SDS011;61854;48.510;-2.770;2022-10-16T02:09:44;11.65;;;1.75;;
73571;SDS011;61854;48.510;-2.770;2022-10-16T02:12:12;9.15;;;1.65;;
73571;SDS011;61854;48.510;-2.770;2022-10-16T02:14:44;8.95;;;1.60;;
73571;SDS011;61854;48.510;-2.770;2022-10-16T02:17:14;12.00;;;1.77;;
73571;SDS011;61854;48.510;-2.770;2022-10-16T02:19:41;13.77;;;1.65;;
73571;SDS011;61854;48.510;-2.770;2022-10-16T02:22:08;9.82;;;1.40;;
73571;SDS011;61854;48.510;-2.770;2022-10-16T02:24:54;10.13;;;1.67;;
73571;SDS011;61854;48.510;-2.770;2022-10-16T02:30:07;12.45;;;1.50;;
73571;SDS011;61854;48.510;-2.770;2022-10-16T02:32:37;11.27;;;2.00;;
73571;SDS011;61854;48.510;-2.770;2022-10-16T02:35:07;10.90;;;2.20;;
73571;SDS011;61854;48.510;-2.770;2022-10-16T02:37:34;13.40;;;2.03;;
73571;SDS011;61854;48.510;-2.770;2022-10-16T02:40:01;10.57;;;1.85;;
73571;SDS011;61854;48.510;-2.770;2022-10-16T02:42:37;8.55;;;1.55;;
73571;SDS011;61854;48.510;-2.770;2022-10-16T02:45:05;10.80;;;1.70;;
73571;SDS011;61854;48.510;-2.770;2022-10-16T02:47:33;10.18;;;1.70;;
73571;SDS011;61854;48.510;-2.770;2022-10-16T02:49:58;13.60;;;2.08;;
73571;SDS011;61854;48.510;-2.770;2022-10-16T02:52:24;11.13;;;1.80;;
73571;SDS011;61854;48.510;-2.770;2022-10-16T02:54:50;10.07;;;1.88;;
73571;SDS011;61854;48.510;-2.770;2022-10-16T02:57:16;14.00;;;2.10;;
73571;SDS011;61854;48.510;-2.770;2022-10-16T02:59:43;7.43;;;1.85;;
73571;SDS011;61854;48.510;-2.770;2022-10-16T03:02:08;12.35;;;2.17;;
73571;SDS011;61854;48.510;-2.770;2022-10-16T03:04:34;9.57;;;1.80;;
73571;SDS011;61854;48.510;-2.770;2022-10-16T03:07:00;9.57;;;1.88;;
73571;SDS011;61854;48.510;-2.770;2022-10-16T03:09:25;6.80;;;1.70;;
73571;SDS011;61854;48.510;-2.770;2022-10-16T03:11:51;11.40;;;2.13;;
73571;SDS011;61854;48.510;-2.770;2022-10-16T03:14:17;6.32;;;1.60;;
73571;SDS011;61854;48.510;-2.770;2022-10-16T03:16:42;12.35;;;2.03;;
73571;SDS011;61854;48.510;-2.770;2022-10-16T03:19:08;10.27;;;1.85;;
73571;SDS011;61854;48.510;-2.770;2022-10-16T03:21:33;11.77;;;2.28;;
73571;SDS011;61854;48.510;-2.770;2022-10-16T03:23:59;12.20;;;2.30;;
73571;SDS011;61854;48.510;-2.770;2022-10-16T03:26:25;14.38;;;1.95;;
73571;SDS011;61854;48.510;-2.770;2022-10-16T03:28:50;9.70;;;1.92;;
73571;SDS011;61854;48.510;-2.770;2022-10-16T03:31:16;13.50;;;2.00;;
73571;SDS011;61854;48.510;-2.770;2022-10-16T03:33:41;8.82;;;2.00;;
73571;SDS011;61854;48.510;-2.770;2022-10-16T03:36:07;14.93;;;2.30;;
73571;SDS011;61854;48.510;-2.770;2022-10-16T03:38:33;11.80;;;1.90;;
73571;SDS011;61854;48.510;-2.770;2022-10-16T03:40:58;8.77;;;2.03;;
73571;SDS011;61854;48.510;-2.770;2022-10-16T03:43:24;13.35;;;1.98;;
73571;SDS011;61854;48.510;-2.770;2022-10-16T03:45:50;8.52;;;1.80;;
73571;SDS011;61854;48.510;-2.770;2022-10-16T03:48:16;11.77;;;2.03;;
73571;SDS011;61854;48.510;-2.770;2022-10-16T03:50:43;9.75;;;2.10;;
73571;SDS011;61854;48.510;-2.770;2022-10-16T03:53:08;9.00;;;1.85;;
73571;SDS011;61854;48.510;-2.770;2022-10-16T03:55:34;11.18;;;1.80;;
73571;SDS011;61854;48.510;-2.770;2022-10-16T03:58:00;12.65;;;2.20;;
73571;SDS011;61854;48.510;-2.770;2022-10-16T04:00:26;10.43;;;1.90;;
73571;SDS011;61854;48.510;-2.770;2022-10-16T04:02:52;16.13;;;2.30;;
73571;SDS011;61854;48.510;-2.770;2022-10-16T04:05:18;13.07;;;2.47;;
73571;SDS011;61854;48.510;-2.770;2022-10-16T04:07:43;12.77;;;2.55;;
73571;SDS011;61854;48.510;-2.770;2022-10-16T04:10:09;11.38;;;2.42;;
73571;SDS011;61854;48.510;-2.770;2022-10-16T04:12:35;10.70;;;2.20;;
73571;SDS011;61854;48.510;-2.770;2022-10-16T04:15:00;12.35;;;2.38;;
73571;SDS011;61854;48.510;-2.770;2022-10-16T04:17:26;10.23;;;2.05;;
73571;SDS011;61854;48.510;-2.770;2022-10-16T04:19:51;10.50;;;1.88;;
73571;SDS011;61854;48.510;-2.770;2022-10-16T04:22:17;14.77;;;2.17;;
73571;SDS011;61854;48.510;-2.770;2022-10-16T04:24:43;10.23;;;1.70;;
73571;SDS011;61854;48.510;-2.770;2022-10-16T04:27:08;11.93;;;1.80;;
73571;SDS011;61854;48.510;-2.770;2022-10-16T04:29:34;6.10;;;1.67;;
73571;SDS011;61854;48.510;-2.770;2022-10-16T04:32:00;9.30;;;1.85;;
73571;SDS011;61854;48.510;-2.770;2022-10-16T04:34:25;7.90;;;1.30;;
73571;SDS011;61854;48.510;-2.770;2022-10-16T04:36:51;15.45;;;2.25;;
73571;SDS011;61854;48.510;-2.770;2022-10-16T04:39:16;8.73;;;1.70;;
73571;SDS011;61854;48.510;-2.770;2022-10-16T04:41:42;9.25;;;1.65;;
73571;SDS011;61854;48.510;-2.770;2022-10-16T04:44:08;8.85;;;1.63;;
73571;SDS011;61854;48.510;-2.770;2022-10-16T04:46:33;10.15;;;1.75;;
73571;SDS011;61854;48.510;-2.770;2022-10-16T04:48:59;9.10;;;1.83;;
73571;SDS011;61854;48.510;-2.770;2022-10-16T04:51:25;15.57;;;2.17;;
73571;SDS011;61854;48.510;-2.770;2022-10-16T04:53:51;9.32;;;1.88;;
73571;SDS011;61854;48.510;-2.770;2022-10-16T04:56:16;9.80;;;2.20;;
73571;SDS011;61854;48.510;-2.770;2022-10-16T04:58:42;12.60;;;2.42;;
73571;SDS011;61854;48.510;-2.770;2022-10-16T05:01:08;12.68;;;2.40;;
73571;SDS011;61854;48.510;-2.770;2022-10-16T05:03:34;9.55;;;2.55;;
73571;SDS011;61854;48.510;-2.770;2022-10-16T05:05:59;12.68;;;2.70;;
73571;SDS011;61854;48.510;-2.770;2022-10-16T05:08:25;11.43;;;2.63;;
73571;SDS011;61854;48.510;-2.770;2022-10-16T05:10:51;15.05;;;3.17;;
73571;SDS011;61854;48.510;-2.770;2022-10-16T05:13:16;11.57;;;3.10;;
73571;SDS011;61854;48.510;-2.770;2022-10-16T05:15:46;14.93;;;3.33;;
73571;SDS011;61854;48.510;-2.770;2022-10-16T05:18:13;13.90;;;3.70;;
73571;SDS011;61854;48.510;-2.770;2022-10-16T05:20:38;10.63;;;2.90;;
73571;SDS011;61854;48.510;-2.770;2022-10-16T05:23:04;14.65;;;3.50;;
73571;SDS011;61854;48.510;-2.770;2022-10-16T05:25:30;9.30;;;3.15;;
73571;SDS011;61854;48.510;-2.770;2022-10-16T05:27:55;13.88;;;3.95;;
73571;SDS011;61854;48.510;-2.770;2022-10-16T05:30:21;18.33;;;3.83;;
73571;SDS011;61854;48.510;-2.770;2022-10-16T05:32:47;10.93;;;3.60;;
73571;SDS011;61854;48.510;-2.770;2022-10-16T05:35:14;11.27;;;3.63;;
73571;SDS011;61854;48.510;-2.770;2022-10-16T05:37:40;9.52;;;3.25;;
73571;SDS011;61854;48.510;-2.770;2022-10-16T05:40:06;13.70;;;3.17;;
73571;SDS011;61854;48.510;-2.770;2022-10-16T05:42:32;11.65;;;3.08;;
73571;SDS011;61854;48.510;-2.770;2022-10-16T05:44:58;10.73;;;3.03;;
73571;SDS011;61854;48.510;-2.770;2022-10-16T05:47:23;11.23;;;2.80;;
73571;SDS011;61854;48.510;-2.770;2022-10-16T05:49:49;12.82;;;2.90;;
73571;SDS011;61854;48.510;-2.770;2022-10-16T05:52:14;11.68;;;3.47;;
73571;SDS011;61854;48.510;-2.770;2022-10-16T05:54:40;9.00;;;3.20;;
73571;SDS011;61854;48.510;-2.770;2022-10-16T05:57:05;15.23;;;3.28;;
73571;SDS011;61854;48.510;-2.770;2022-10-16T05:59:31;9.98;;;3.20;;
73571;SDS011;61854;48.510;-2.770;2022-10-16T06:01:57;13.15;;;3.25;;
73571;SDS011;61854;48.510;-2.770;2022-10-16T06:04:23;13.23;;;3.25;;
73571;SDS011;61854;48.510;-2.770;2022-10-16T06:06:48;12.40;;;2.92;;
73571;SDS011;61854;48.510;-2.770;2022-10-16T06:09:14;14.18;;;3.60;;
73571;SDS011;61854;48.510;-2.770;2022-10-16T06:11:39;10.07;;;2.50;;
73571;SDS011;61854;48.510;-2.770;2022-10-16T06:14:05;11.02;;;2.83;;
73571;SDS011;61854;48.510;-2.770;2022-10-16T06:19:00;9.90;;;2.85;;
73571;SDS011;61854;48.510;-2.770;2022-10-16T06:21:27;7.85;;;2.30;;
73571;SDS011;61854;48.510;-2.770;2022-10-16T06:23:56;11.05;;;3.22;;
73571;SDS011;61854;48.510;-2.770;2022-10-16T06:26:24;8.05;;;2.33;;
73571;SDS011;61854;48.510;-2.770;2022-10-16T06:28:53;10.30;;;2.80;;
73571;SDS011;61854;48.510;-2.770;2022-10-16T06:31:20;10.50;;;2.38;;
73571;SDS011;61854;48.510;-2.770;2022-10-16T06:33:45;8.82;;;2.30;;
73571;SDS011;61854;48.510;-2.770;2022-10-16T06:36:16;9.30;;;2.42;;
73571;SDS011;61854;48.510;-2.770;2022-10-16T06:38:42;7.80;;;2.17;;
73571;SDS011;61854;48.510;-2.770;2022-10-16T06:41:09;5.28;;;2.10;;
73571;SDS011;61854;48.510;-2.770;2022-10-16T06:43:37;9.85;;;2.25;;
73571;SDS011;61854;48.510;-2.770;2022-10-16T06:46:04;12.48;;;2.50;;
73571;SDS011;61854;48.510;-2.770;2022-10-16T06:48:32;10.05;;;2.50;;
73571;SDS011;61854;48.510;-2.770;2022-10-16T06:50:59;12.65;;;2.78;;
73571;SDS011;61854;48.510;-2.770;2022-10-16T06:53:24;8.10;;;2.65;;
73571;SDS011;61854;48.510;-2.770;2022-10-16T06:55:51;10.30;;;2.70;;
73571;SDS011;61854;48.510;-2.770;2022-10-16T06:58:17;8.20;;;2.75;;
73571;SDS011;61854;48.510;-2.770;2022-10-16T07:00:42;8.85;;;2.95;;
73571;SDS011;61854;48.510;-2.770;2022-10-16T07:03:08;14.43;;;3.25;;
73571;SDS011;61854;48.510;-2.770;2022-10-16T07:05:37;10.15;;;2.45;;
73571;SDS011;61854;48.510;-2.770;2022-10-16T07:08:04;5.32;;;2.45;;
73571;SDS011;61854;48.510;-2.770;2022-10-16T07:10:30;7.03;;;2.15;;
73571;SDS011;61854;48.510;-2.770;2022-10-16T07:12:56;10.07;;;2.80;;
73571;SDS011;61854;48.510;-2.770;2022-10-16T07:15:22;13.82;;;2.50;;
73571;SDS011;61854;48.510;-2.770;2022-10-16T07:17:48;6.63;;;3.10;;
73571;SDS011;61854;48.510;-2.770;2022-10-16T07:20:13;6.40;;;2.13;;
73571;SDS011;61854;48.510;-2.770;2022-10-16T07:22:39;6.63;;;2.25;;
73571;SDS011;61854;48.510;-2.770;2022-10-16T07:25:05;7.55;;;2.33;;
73571;SDS011;61854;48.510;-2.770;2022-10-16T07:27:31;7.65;;;2.50;;
73571;SDS011;61854;48.510;-2.770;2022-10-16T07:29:56;8.18;;;2.22;;
73571;SDS011;61854;48.510;-2.770;2022-10-16T07:32:22;6.55;;;2.38;;
73571;SDS011;61854;48.510;-2.770;2022-10-16T07:34:48;8.70;;;2.63;;
73571;SDS011;61854;48.510;-2.770;2022-10-16T07:37:14;8.30;;;2.60;;
73571;SDS011;61854;48.510;-2.770;2022-10-16T07:39:39;8.80;;;3.00;;
73571;SDS011;61854;48.510;-2.770;2022-10-16T07:42:05;9.90;;;3.08;;
73571;SDS011;61854;48.510;-2.770;2022-10-16T07:44:32;4.75;;;2.85;;
73571;SDS011;61854;48.510;-2.770;2022-10-16T07:46:58;5.13;;;2.55;;
73571;SDS011;61854;48.510;-2.770;2022-10-16T07:49:23;8.20;;;2.55;;
73571;SDS011;61854;48.510;-2.770;2022-10-16T07:51:49;7.10;;;3.05;;
73571;SDS011;61854;48.510;-2.770;2022-10-16T07:54:15;5.28;;;2.50;;
73571;SDS011;61854;48.510;-2.770;2022-10-16T07:56:41;5.75;;;2.50;;
73571;SDS011;61854;48.510;-2.770;2022-10-16T07:59:06;6.90;;;2.50;;
73571;SDS011;61854;48.510;-2.770;2022-10-16T08:01:32;12.70;;;3.13;;
73571;SDS011;61854;48.510;-2.770;2022-10-16T08:03:57;6.55;;;2.90;;
73571;SDS011;61854;48.510;-2.770;2022-10-16T08:06:23;7.60;;;2.47;;
73571;SDS011;61854;48.510;-2.770;2022-10-16T08:08:49;4.95;;;2.47;;
73571;SDS011;61854;48.510;-2.770;2022-10-16T08:11:15;6.60;;;2.83;;
73571;SDS011;61854;48.510;-2.770;2022-10-16T08:13:41;5.07;;;2.90;;
73571;SDS011;61854;48.510;-2.770;2022-10-16T08:16:07;7.18;;;2.72;;
73571;SDS011;61854;48.510;-2.770;2022-10-16T08:18:36;12.63;;;3.10;;
73571;SDS011;61854;48.510;-2.770;2022-10-16T08:21:03;7.80;;;3.38;;
73571;SDS011;61854;48.510;-2.770;2022-10-16T08:23:30;7.28;;;3.63;;
73571;SDS011;61854;48.510;-2.770;2022-10-16T08:25:56;7.63;;;3.50;;
73571;SDS011;61854;48.510;-2.770;2022-10-16T08:28:28;8.73;;;3.40;;
73571;SDS011;61854;48.510;-2.770;2022-10-16T08:30:53;5.95;;;2.78;;
73571;SDS011;61854;48.510;-2.770;2022-10-16T08:33:21;9.17;;;2.87;;
73571;SDS011;61854;48.510;-2.770;2022-10-16T08:35:53;8.70;;;2.90;;
73571;SDS011;61854;48.510;-2.770;2022-10-16T08:38:19;6.75;;;2.78;;
73571;SDS011;61854;48.510;-2.770;2022-10-16T08:40:45;4.90;;;2.53;;
73571;SDS011;61854;48.510;-2.770;2022-10-16T08:46:21;8.23;;;2.90;;
73571;SDS011;61854;48.510;-2.770;2022-10-16T08:48:54;9.75;;;3.20;;
73571;SDS011;61854;48.510;-2.770;2022-10-16T08:51:26;5.38;;;2.88;;
73571;SDS011;61854;48.510;-2.770;2022-10-16T08:56:48;8.43;;;3.25;;
73571;SDS011;61854;48.510;-2.770;2022-10-16T08:59:13;14.07;;;4.45;;
73571;SDS011;61854;48.510;-2.770;2022-10-16T09:01:41;9.80;;;3.92;;
73571;SDS011;61854;48.510;-2.770;2022-10-16T09:10:15;8.68;;;4.55;;
73571;SDS011;61854;48.510;-2.770;2022-10-16T09:12:55;11.50;;;4.20;;
73571;SDS011;61854;48.510;-2.770;2022-10-16T09:18:44;8.55;;;4.18;;
73571;SDS011;61854;48.510;-2.770;2022-10-16T09:21:23;11.27;;;4.32;;
73571;SDS011;61854;48.510;-2.770;2022-10-16T09:24:00;9.15;;;4.57;;
73571;SDS011;61854;48.510;-2.770;2022-10-16T09:26:38;12.25;;;4.97;;
73571;SDS011;61854;48.510;-2.770;2022-10-16T09:29:04;12.77;;;5.35;;
73571;SDS011;61854;48.510;-2.770;2022-10-16T09:31:29;15.75;;;4.78;;
73571;SDS011;61854;48.510;-2.770;2022-10-16T09:33:57;9.27;;;4.90;;
73571;SDS011;61854;48.510;-2.770;2022-10-16T09:36:25;12.82;;;5.70;;
73571;SDS011;61854;48.510;-2.770;2022-10-16T09:39:06;15.73;;;5.72;;
73571;SDS011;61854;48.510;-2.770;2022-10-16T09:41:37;12.75;;;5.30;;
73571;SDS011;61854;48.510;-2.770;2022-10-16T09:44:06;12.07;;;5.57;;
73571;SDS011;61854;48.510;-2.770;2022-10-16T09:49:49;7.57;;;4.00;;
73571;SDS011;61854;48.510;-2.770;2022-10-16T09:52:20;9.70;;;3.92;;
73571;SDS011;61854;48.510;-2.770;2022-10-16T09:54:53;5.63;;;3.13;;
73571;SDS011;61854;48.510;-2.770;2022-10-16T09:57:18;6.72;;;2.90;;
73571;SDS011;61854;48.510;-2.770;2022-10-16T09:59:49;5.75;;;2.60;;
73571;SDS011;61854;48.510;-2.770;2022-10-16T10:02:17;5.10;;;2.35;;
73571;SDS011;61854;48.510;-2.770;2022-10-16T10:04:51;5.13;;;2.50;;
73571;SDS011;61854;48.510;-2.770;2022-10-16T10:07:30;3.75;;;1.90;;
73571;SDS011;61854;48.510;-2.770;2022-10-16T10:09:58;5.05;;;1.63;;
73571;SDS011;61854;48.510;-2.770;2022-10-16T10:12:25;3.03;;;1.63;;
73571;SDS011;61854;48.510;-2.770;2022-10-16T10:14:53;5.70;;;2.13;;
73571;SDS011;61854;48.510;-2.770;2022-10-16T10:17:23;5.80;;;2.38;;
73571;SDS011;61854;48.510;-2.770;2022-10-16T10:22:29;3.75;;;2.10;;
73571;SDS011;61854;48.510;-2.770;2022-10-16T10:27:39;6.75;;;1.85;;
73571;SDS011;61854;48.510;-2.770;2022-10-16T10:30:29;7.35;;;1.85;;
73571;SDS011;61854;48.510;-2.770;2022-10-16T10:33:14;6.38;;;2.00;;
73571;SDS011;61854;48.510;-2.770;2022-10-16T10:38:53;6.82;;;1.90;;
73571;SDS011;61854;48.510;-2.770;2022-10-16T10:41:29;4.35;;;1.40;;
73571;SDS011;61854;48.510;-2.770;2022-10-16T10:47:27;9.05;;;1.40;;
73571;SDS011;61854;48.510;-2.770;2022-10-16T10:52:59;6.30;;;1.20;;
73571;SDS011;61854;48.510;-2.770;2022-10-16T10:55:54;5.80;;;1.27;;
73571;SDS011;61854;48.510;-2.770;2022-10-16T11:07:43;5.80;;;1.00;;
73571;SDS011;61854;48.510;-2.770;2022-10-16T11:10:23;4.70;;;1.10;;
73571;SDS011;61854;48.510;-2.770;2022-10-16T11:16:28;8.10;;;1.40;;
73571;SDS011;61854;48.510;-2.770;2022-10-16T11:21:25;6.50;;;1.25;;
73571;SDS011;61854;48.510;-2.770;2022-10-16T11:23:59;3.30;;;1.27;;
73571;SDS011;61854;48.510;-2.770;2022-10-16T11:26:31;2.75;;;0.65;;
73571;SDS011;61854;48.510;-2.770;2022-10-16T11:29:01;2.78;;;0.60;;
73571;SDS011;61854;48.510;-2.770;2022-10-16T11:31:41;3.30;;;0.93;;
73571;SDS011;61854;48.510;-2.770;2022-10-16T11:34:19;3.13;;;0.80;;
73571;SDS011;61854;48.510;-2.770;2022-10-16T11:39:27;3.83;;;0.82;;
73571;SDS011;61854;48.510;-2.770;2022-10-16T11:41:55;4.70;;;1.17;;
73571;SDS011;61854;48.510;-2.770;2022-10-16T11:47:24;3.20;;;0.90;;
73571;SDS011;61854;48.510;-2.770;2022-10-16T11:50:01;4.28;;;0.93;;
73571;SDS011;61854;48.510;-2.770;2022-10-16T11:55:42;3.58;;;1.10;;
73571;SDS011;61854;48.510;-2.770;2022-10-16T12:00:51;3.15;;;1.00;;
73571;SDS011;61854;48.510;-2.770;2022-10-16T12:08:26;5.90;;;1.60;;
73571;SDS011;61854;48.510;-2.770;2022-10-16T12:10:53;4.80;;;1.30;;
73571;SDS011;61854;48.510;-2.770;2022-10-16T12:13:33;2.85;;;1.00;;
73571;SDS011;61854;48.510;-2.770;2022-10-16T12:18:37;4.68;;;1.10;;
73571;SDS011;61854;48.510;-2.770;2022-10-16T12:21:04;5.38;;;0.98;;
73571;SDS011;61854;48.510;-2.770;2022-10-16T12:23:32;3.73;;;1.00;;
73571;SDS011;61854;48.510;-2.770;2022-10-16T12:26:02;5.43;;;1.25;;
73571;SDS011;61854;48.510;-2.770;2022-10-16T12:28:30;5.53;;;1.50;;
73571;SDS011;61854;48.510;-2.770;2022-10-16T12:31:01;6.93;;;1.27;;
73571;SDS011;61854;48.510;-2.770;2022-10-16T12:33:30;2.80;;;1.10;;
73571;SDS011;61854;48.510;-2.770;2022-10-16T12:35:59;3.67;;;1.20;;
73571;SDS011;61854;48.510;-2.770;2022-10-16T12:38:28;5.00;;;1.10;;
73571;SDS011;61854;48.510;-2.770;2022-10-16T12:41:10;3.22;;;1.10;;
73571;SDS011;61854;48.510;-2.770;2022-10-16T12:48:35;2.95;;;1.00;;
73571;SDS011;61854;48.510;-2.770;2022-10-16T13:01:37;3.22;;;1.33;;
73571;SDS011;61854;48.510;-2.770;2022-10-16T13:09:40;5.07;;;1.30;;
73571;SDS011;61854;48.510;-2.770;2022-10-16T13:12:37;2.38;;;1.10;;
73571;SDS011;61854;48.510;-2.770;2022-10-16T13:15:12;4.03;;;1.40;;
73571;SDS011;61854;48.510;-2.770;2022-10-16T13:17:45;4.93;;;1.45;;
73571;SDS011;61854;48.510;-2.770;2022-10-16T13:23:33;3.22;;;1.00;;
73571;SDS011;61854;48.510;-2.770;2022-10-16T13:28:48;4.13;;;1.17;;
73571;SDS011;61854;48.510;-2.770;2022-10-16T13:31:15;2.65;;;1.00;;
73571;SDS011;61854;48.510;-2.770;2022-10-16T13:33:48;4.07;;;1.20;;
73571;SDS011;61854;48.510;-2.770;2022-10-16T13:36:23;4.43;;;1.00;;
73571;SDS011;61854;48.510;-2.770;2022-10-16T13:41:34;3.33;;;1.00;;
73571;SDS011;61854;48.510;-2.770;2022-10-16T13:44:00;4.18;;;1.33;;
73571;SDS011;61854;48.510;-2.770;2022-10-16T13:46:26;2.58;;;1.00;;
73571;SDS011;61854;48.510;-2.770;2022-10-16T13:48:58;3.55;;;1.10;;
73571;SDS011;61854;48.510;-2.770;2022-10-16T13:51:36;3.38;;;1.23;;
73571;SDS011;61854;48.510;-2.770;2022-10-16T13:54:02;2.22;;;1.00;;
73571;SDS011;61854;48.510;-2.770;2022-10-16T13:56:28;3.85;;;1.40;;
73571;SDS011;61854;48.510;-2.770;2022-10-16T13:59:03;2.05;;;1.17;;
73571;SDS011;61854;48.510;-2.770;2022-10-16T14:01:31;3.00;;;1.17;;
73571;SDS011;61854;48.510;-2.770;2022-10-16T14:04:18;6.45;;;1.50;;
73571;SDS011;61854;48.510;-2.770;2022-10-16T14:06:46;2.72;;;1.48;;
73571;SDS011;61854;48.510;-2.770;2022-10-16T14:11:53;7.18;;;2.00;;
73571;SDS011;61854;48.510;-2.770;2022-10-16T14:14:23;7.28;;;1.90;;
73571;SDS011;61854;48.510;-2.770;2022-10-16T14:16:50;2.70;;;1.50;;
73571;SDS011;61854;48.510;-2.770;2022-10-16T14:19:22;3.90;;;1.50;;
73571;SDS011;61854;48.510;-2.770;2022-10-16T14:21:52;4.45;;;1.40;;
73571;SDS011;61854;48.510;-2.770;2022-10-16T14:24:31;3.90;;;1.30;;
73571;SDS011;61854;48.510;-2.770;2022-10-16T14:26:58;2.08;;;1.25;;
73571;SDS011;61854;48.510;-2.770;2022-10-16T14:29:25;2.95;;;1.50;;
73571;SDS011;61854;48.510;-2.770;2022-10-16T14:31:57;3.00;;;1.25;;
73571;SDS011;61854;48.510;-2.770;2022-10-16T14:34:25;1.90;;;0.93;;
73571;SDS011;61854;48.510;-2.770;2022-10-16T14:36:53;4.03;;;1.30;;
73571;SDS011;61854;48.510;-2.770;2022-10-16T14:39:20;2.53;;;1.10;;
73571;SDS011;61854;48.510;-2.770;2022-10-16T14:41:48;4.78;;;1.48;;
73571;SDS011;61854;48.510;-2.770;2022-10-16T14:44:19;2.20;;;1.10;;
73571;SDS011;61854;48.510;-2.770;2022-10-16T14:46:51;4.00;;;1.27;;
73571;SDS011;61854;48.510;-2.770;2022-10-16T14:49:18;4.22;;;1.10;;
73571;SDS011;61854;48.510;-2.770;2022-10-16T14:51:45;3.28;;;1.10;;
73571;SDS011;61854;48.510;-2.770;2022-10-16T14:54:12;3.05;;;1.10;;
73571;SDS011;61854;48.510;-2.770;2022-10-16T14:56:46;2.07;;;1.07;;
73571;SDS011;61854;48.510;-2.770;2022-10-16T14:59:16;2.13;;;1.00;;
73571;SDS011;61854;48.510;-2.770;2022-10-16T15:01:50;3.72;;;1.05;;
73571;SDS011;61854;48.510;-2.770;2022-10-16T15:04:16;2.47;;;1.17;;
73571;SDS011;61854;48.510;-2.770;2022-10-16T15:06:42;3.35;;;1.20;;
73571;SDS011;61854;48.510;-2.770;2022-10-16T15:09:08;2.25;;;0.93;;
73571;SDS011;61854;48.510;-2.770;2022-10-16T15:11:33;1.83;;;1.02;;
73571;SDS011;61854;48.510;-2.770;2022-10-16T15:13:59;2.80;;;0.90;;
73571;SDS011;61854;48.510;-2.770;2022-10-16T15:16:26;2.40;;;1.20;;
73571;SDS011;61854;48.510;-2.770;2022-10-16T15:18:52;2.45;;;1.17;;
73571;SDS011;61854;48.510;-2.770;2022-10-16T15:21:25;1.80;;;0.90;;
73571;SDS011;61854;48.510;-2.770;2022-10-16T15:23:55;3.47;;;1.40;;
73571;SDS011;61854;48.510;-2.770;2022-10-16T15:26:22;3.42;;;1.20;;
73571;SDS011;61854;48.510;-2.770;2022-10-16T15:28:48;3.00;;;1.15;;
73571;SDS011;61854;48.510;-2.770;2022-10-16T15:31:14;2.78;;;0.98;;
73571;SDS011;61854;48.510;-2.770;2022-10-16T15:33:39;3.10;;;1.05;;
73571;SDS011;61854;48.510;-2.770;2022-10-16T15:36:05;4.22;;;1.08;;
73571;SDS011;61854;48.510;-2.770;2022-10-16T15:38:32;2.70;;;1.00;;
73571;SDS011;61854;48.510;-2.770;2022-10-16T15:40:58;2.65;;;1.00;;
73571;SDS011;61854;48.510;-2.770;2022-10-16T15:43:24;4.30;;;1.00;;
73571;SDS011;61854;48.510;-2.770;2022-10-16T15:45:59;1.60;;;0.93;;
73571;SDS011;61854;48.510;-2.770;2022-10-16T15:48:28;2.22;;;1.08;;
73571;SDS011;61854;48.510;-2.770;2022-10-16T15:50:54;3.28;;;0.80;;
73571;SDS011;61854;48.510;-2.770;2022-10-16T15:53:20;3.65;;;1.23;;
73571;SDS011;61854;48.510;-2.770;2022-10-16T15:55:45;6.00;;;1.40;;
73571;SDS011;61854;48.510;-2.770;2022-10-16T15:58:11;3.15;;;1.40;;
73571;SDS011;61854;48.510;-2.770;2022-10-16T16:00:36;2.90;;;1.08;;
73571;SDS011;61854;48.510;-2.770;2022-10-16T16:03:03;3.45;;;1.13;;
73571;SDS011;61854;48.510;-2.770;2022-10-16T16:05:28;2.75;;;0.98;;
73571;SDS011;61854;48.510;-2.770;2022-10-16T16:07:54;2.22;;;1.02;;
73571;SDS011;61854;48.510;-2.770;2022-10-16T16:10:20;3.08;;;1.20;;
73571;SDS011;61854;48.510;-2.770;2022-10-16T16:12:46;4.18;;;1.67;;
73571;SDS011;61854;48.510;-2.770;2022-10-16T16:15:17;5.07;;;1.50;;
73571;SDS011;61854;48.510;-2.770;2022-10-16T16:17:44;4.97;;;1.40;;
73571;SDS011;61854;48.510;-2.770;2022-10-16T16:20:10;3.63;;;1.48;;
73571;SDS011;61854;48.510;-2.770;2022-10-16T16:22:36;3.58;;;1.70;;
73571;SDS011;61854;48.510;-2.770;2022-10-16T16:25:02;5.45;;;1.77;;
73571;SDS011;61854;48.510;-2.770;2022-10-16T16:27:27;3.22;;;1.40;;
73571;SDS011;61854;48.510;-2.770;2022-10-16T16:29:55;3.42;;;1.70;;
73571;SDS011;61854;48.510;-2.770;2022-10-16T16:32:21;3.33;;;1.90;;
73571;SDS011;61854;48.510;-2.770;2022-10-16T16:34:47;6.68;;;1.73;;
73571;SDS011;61854;48.510;-2.770;2022-10-16T16:37:12;3.95;;;2.03;;
73571;SDS011;61854;48.510;-2.770;2022-10-16T16:39:38;4.32;;;1.90;;